Terminal Aerodrome Forecast
Issued by NWS

Home | Current Version | Previous Version | Text Only | Print | Product List | Glossary On
Versions: 1 2 3 4 5 6 7 8 9 10 11 12 13 14 15 16 17 18 19 20 21 22 23 24 25
000
FTUS43 KDVN 171400 AAB
TAFCID
TAF AMD
KCID 171457Z 1715/1812 28015G20KT P6SM BKN030
     FM171600 30017G26KT P6SM OVC028
     FM180000 30013KT P6SM OVC030=

USA.gov is the U.S. government's official web portal to all federal, state and local government web resources and services.